sensor_id;sensor_type;location;lat;lon;timestamp;P1;durP1;ratioP1;P2;durP2;ratioP2
20379;SDS011;10349;48.666;8.948;2024-02-26T00:00:38;9.90;;;4.03;;
20379;SDS011;10349;48.666;8.948;2024-02-26T00:03:04;7.30;;;3.20;;
20379;SDS011;10349;48.666;8.948;2024-02-26T00:05:30;5.30;;;2.97;;
20379;SDS011;10349;48.666;8.948;2024-02-26T00:07:56;4.17;;;3.77;;
20379;SDS011;10349;48.666;8.948;2024-02-26T00:10:22;6.90;;;3.80;;
20379;SDS011;10349;48.666;8.948;2024-02-26T00:12:48;4.40;;;3.53;;
20379;SDS011;10349;48.666;8.948;2024-02-26T00:15:13;5.37;;;3.70;;
20379;SDS011;10349;48.666;8.948;2024-02-26T00:17:39;2.70;;;2.57;;
20379;SDS011;10349;48.666;8.948;2024-02-26T00:20:05;5.17;;;3.50;;
20379;SDS011;10349;48.666;8.948;2024-02-26T00:22:34;5.60;;;4.53;;
20379;SDS011;10349;48.666;8.948;2024-02-26T00:25:00;3.47;;;3.17;;
20379;SDS011;10349;48.666;8.948;2024-02-26T00:27:27;4.63;;;3.77;;
20379;SDS011;10349;48.666;8.948;2024-02-26T00:29:52;4.03;;;2.33;;
20379;SDS011;10349;48.666;8.948;2024-02-26T00:32:18;4.20;;;3.70;;
20379;SDS011;10349;48.666;8.948;2024-02-26T00:34:44;4.43;;;3.70;;
20379;SDS011;10349;48.666;8.948;2024-02-26T00:37:09;4.07;;;3.47;;
20379;SDS011;10349;48.666;8.948;2024-02-26T00:39:35;2.97;;;2.70;;
20379;SDS011;10349;48.666;8.948;2024-02-26T00:42:01;3.73;;;3.30;;
20379;SDS011;10349;48.666;8.948;2024-02-26T00:44:28;2.73;;;2.30;;
20379;SDS011;10349;48.666;8.948;2024-02-26T00:46:53;3.50;;;3.20;;
20379;SDS011;10349;48.666;8.948;2024-02-26T00:49:19;2.07;;;1.93;;
20379;SDS011;10349;48.666;8.948;2024-02-26T00:51:45;3.30;;;3.00;;
20379;SDS011;10349;48.666;8.948;2024-02-26T00:54:10;3.13;;;2.87;;
20379;SDS011;10349;48.666;8.948;2024-02-26T00:56:36;3.83;;;2.30;;
20379;SDS011;10349;48.666;8.948;2024-02-26T00:59:01;3.63;;;2.50;;
20379;SDS011;10349;48.666;8.948;2024-02-26T01:01:27;3.43;;;2.43;;
20379;SDS011;10349;48.666;8.948;2024-02-26T01:03:53;3.30;;;2.93;;
20379;SDS011;10349;48.666;8.948;2024-02-26T01:06:18;1.70;;;1.60;;
20379;SDS011;10349;48.666;8.948;2024-02-26T01:08:44;2.07;;;1.87;;
20379;SDS011;10349;48.666;8.948;2024-02-26T01:11:09;2.90;;;2.60;;
20379;SDS011;10349;48.666;8.948;2024-02-26T01:13:35;1.90;;;1.80;;
20379;SDS011;10349;48.666;8.948;2024-02-26T01:16:01;2.50;;;2.30;;
20379;SDS011;10349;48.666;8.948;2024-02-26T01:18:27;3.40;;;2.00;;
20379;SDS011;10349;48.666;8.948;2024-02-26T01:20:53;1.63;;;1.53;;
20379;SDS011;10349;48.666;8.948;2024-02-26T01:23:21;5.60;;;2.57;;
20379;SDS011;10349;48.666;8.948;2024-02-26T01:25:47;2.17;;;2.07;;
20379;SDS011;10349;48.666;8.948;2024-02-26T01:28:13;2.67;;;1.83;;
20379;SDS011;10349;48.666;8.948;2024-02-26T01:30:41;1.93;;;1.53;;
20379;SDS011;10349;48.666;8.948;2024-02-26T01:33:06;4.23;;;2.30;;
20379;SDS011;10349;48.666;8.948;2024-02-26T01:35:32;2.50;;;2.30;;
20379;SDS011;10349;48.666;8.948;2024-02-26T01:37:58;3.27;;;2.33;;
20379;SDS011;10349;48.666;8.948;2024-02-26T01:40:26;2.63;;;2.07;;
20379;SDS011;10349;48.666;8.948;2024-02-26T01:42:52;3.10;;;1.60;;
20379;SDS011;10349;48.666;8.948;2024-02-26T01:45:18;3.50;;;2.60;;
20379;SDS011;10349;48.666;8.948;2024-02-26T01:47:48;2.87;;;2.40;;
20379;SDS011;10349;48.666;8.948;2024-02-26T01:50:15;2.10;;;2.00;;
20379;SDS011;10349;48.666;8.948;2024-02-26T01:52:41;2.30;;;2.20;;
20379;SDS011;10349;48.666;8.948;2024-02-26T01:55:07;1.83;;;1.50;;
20379;SDS011;10349;48.666;8.948;2024-02-26T01:57:33;2.40;;;2.20;;
20379;SDS011;10349;48.666;8.948;2024-02-26T01:59:59;1.83;;;1.33;;
20379;SDS011;10349;48.666;8.948;2024-02-26T02:02:25;2.33;;;0.90;;
20379;SDS011;10349;48.666;8.948;2024-02-26T02:04:51;1.90;;;1.63;;
20379;SDS011;10349;48.666;8.948;2024-02-26T02:07:18;3.33;;;1.77;;
20379;SDS011;10349;48.666;8.948;2024-02-26T02:09:45;1.20;;;1.10;;
20379;SDS011;10349;48.666;8.948;2024-02-26T02:12:10;2.40;;;1.53;;
20379;SDS011;10349;48.666;8.948;2024-02-26T02:14:36;2.23;;;1.83;;
20379;SDS011;10349;48.666;8.948;2024-02-26T02:17:02;1.37;;;1.27;;
20379;SDS011;10349;48.666;8.948;2024-02-26T02:19:28;2.33;;;2.03;;
20379;SDS011;10349;48.666;8.948;2024-02-26T02:21:53;2.63;;;1.33;;
20379;SDS011;10349;48.666;8.948;2024-02-26T02:24:19;1.27;;;1.17;;
20379;SDS011;10349;48.666;8.948;2024-02-26T02:26:44;1.30;;;0.93;;
20379;SDS011;10349;48.666;8.948;2024-02-26T02:29:10;1.30;;;1.07;;
20379;SDS011;10349;48.666;8.948;2024-02-26T02:31:37;1.70;;;1.07;;
20379;SDS011;10349;48.666;8.948;2024-02-26T02:34:03;1.20;;;0.90;;
20379;SDS011;10349;48.666;8.948;2024-02-26T02:36:28;1.63;;;0.87;;
20379;SDS011;10349;48.666;8.948;2024-02-26T02:38:54;1.23;;;1.13;;
20379;SDS011;10349;48.666;8.948;2024-02-26T02:41:19;2.00;;;1.47;;
20379;SDS011;10349;48.666;8.948;2024-02-26T02:43:46;1.10;;;0.90;;
20379;SDS011;10349;48.666;8.948;2024-02-26T02:46:11;1.40;;;1.00;;
20379;SDS011;10349;48.666;8.948;2024-02-26T02:48:37;1.63;;;1.53;;
20379;SDS011;10349;48.666;8.948;2024-02-26T02:51:03;1.37;;;0.97;;
20379;SDS011;10349;48.666;8.948;2024-02-26T02:53:29;2.50;;;2.30;;
20379;SDS011;10349;48.666;8.948;2024-02-26T02:55:55;2.07;;;1.83;;
20379;SDS011;10349;48.666;8.948;2024-02-26T02:58:20;2.90;;;1.20;;
20379;SDS011;10349;48.666;8.948;2024-02-26T03:00:46;1.33;;;1.23;;
20379;SDS011;10349;48.666;8.948;2024-02-26T03:03:12;1.23;;;0.90;;
20379;SDS011;10349;48.666;8.948;2024-02-26T03:05:37;1.10;;;0.90;;
20379;SDS011;10349;48.666;8.948;2024-02-26T03:08:03;1.37;;;1.23;;
20379;SDS011;10349;48.666;8.948;2024-02-26T03:10:29;1.20;;;1.10;;
20379;SDS011;10349;48.666;8.948;2024-02-26T03:12:54;0.90;;;0.67;;
20379;SDS011;10349;48.666;8.948;2024-02-26T03:15:21;0.80;;;0.60;;
20379;SDS011;10349;48.666;8.948;2024-02-26T03:17:47;1.10;;;0.97;;
20379;SDS011;10349;48.666;8.948;2024-02-26T03:20:13;1.10;;;0.90;;
20379;SDS011;10349;48.666;8.948;2024-02-26T03:22:39;0.90;;;0.70;;
20379;SDS011;10349;48.666;8.948;2024-02-26T03:25:05;1.00;;;0.70;;
20379;SDS011;10349;48.666;8.948;2024-02-26T03:27:31;0.87;;;0.70;;
20379;SDS011;10349;48.666;8.948;2024-02-26T03:29:57;0.80;;;0.50;;
20379;SDS011;10349;48.666;8.948;2024-02-26T03:32:23;0.90;;;0.60;;
20379;SDS011;10349;48.666;8.948;2024-02-26T03:34:48;1.57;;;1.17;;
20379;SDS011;10349;48.666;8.948;2024-02-26T03:37:14;1.70;;;1.60;;
20379;SDS011;10349;48.666;8.948;2024-02-26T03:39:40;1.13;;;1.00;;
20379;SDS011;10349;48.666;8.948;2024-02-26T03:42:06;1.33;;;1.23;;
20379;SDS011;10349;48.666;8.948;2024-02-26T03:44:31;1.00;;;0.90;;
20379;SDS011;10349;48.666;8.948;2024-02-26T03:46:57;1.20;;;1.10;;
20379;SDS011;10349;48.666;8.948;2024-02-26T03:49:22;1.53;;;1.20;;
20379;SDS011;10349;48.666;8.948;2024-02-26T03:51:48;1.63;;;1.53;;
20379;SDS011;10349;48.666;8.948;2024-02-26T03:54:14;1.00;;;0.87;;
20379;SDS011;10349;48.666;8.948;2024-02-26T03:56:40;1.20;;;1.10;;
20379;SDS011;10349;48.666;8.948;2024-02-26T03:59:05;0.90;;;0.77;;
20379;SDS011;10349;48.666;8.948;2024-02-26T04:01:31;0.93;;;0.83;;
20379;SDS011;10349;48.666;8.948;2024-02-26T04:03:57;1.30;;;1.10;;
20379;SDS011;10349;48.666;8.948;2024-02-26T04:06:22;1.23;;;1.00;;
20379;SDS011;10349;48.666;8.948;2024-02-26T04:08:48;1.10;;;1.00;;
20379;SDS011;10349;48.666;8.948;2024-02-26T04:11:14;1.20;;;1.10;;
20379;SDS011;10349;48.666;8.948;2024-02-26T04:13:43;0.97;;;0.87;;
20379;SDS011;10349;48.666;8.948;2024-02-26T04:16:11;0.90;;;0.60;;
20379;SDS011;10349;48.666;8.948;2024-02-26T04:18:37;1.20;;;0.87;;
20379;SDS011;10349;48.666;8.948;2024-02-26T04:21:03;1.73;;;1.63;;
20379;SDS011;10349;48.666;8.948;2024-02-26T04:23:30;1.13;;;1.03;;
20379;SDS011;10349;48.666;8.948;2024-02-26T04:25:56;1.10;;;1.00;;
20379;SDS011;10349;48.666;8.948;2024-02-26T04:28:21;1.17;;;1.07;;
20379;SDS011;10349;48.666;8.948;2024-02-26T04:30:47;2.83;;;1.23;;
20379;SDS011;10349;48.666;8.948;2024-02-26T04:33:13;2.63;;;1.60;;
20379;SDS011;10349;48.666;8.948;2024-02-26T04:35:40;1.17;;;1.07;;
20379;SDS011;10349;48.666;8.948;2024-02-26T04:38:06;21.47;;;1.17;;
20379;SDS011;10349;48.666;8.948;2024-02-26T04:40:31;1.23;;;1.13;;
20379;SDS011;10349;48.666;8.948;2024-02-26T04:42:57;3.00;;;1.30;;
20379;SDS011;10349;48.666;8.948;2024-02-26T04:45:23;1.00;;;0.80;;
20379;SDS011;10349;48.666;8.948;2024-02-26T04:47:48;1.00;;;0.90;;
20379;SDS011;10349;48.666;8.948;2024-02-26T04:50:14;1.00;;;0.80;;
20379;SDS011;10349;48.666;8.948;2024-02-26T04:52:40;1.43;;;0.93;;
20379;SDS011;10349;48.666;8.948;2024-02-26T04:55:06;1.20;;;0.93;;
20379;SDS011;10349;48.666;8.948;2024-02-26T04:57:32;1.10;;;1.00;;
20379;SDS011;10349;48.666;8.948;2024-02-26T04:59:58;1.47;;;1.37;;
20379;SDS011;10349;48.666;8.948;2024-02-26T05:02:23;1.30;;;1.20;;
20379;SDS011;10349;48.666;8.948;2024-02-26T05:04:49;1.20;;;1.10;;
20379;SDS011;10349;48.666;8.948;2024-02-26T05:07:15;1.33;;;1.23;;
20379;SDS011;10349;48.666;8.948;2024-02-26T05:09:42;1.00;;;0.90;;
20379;SDS011;10349;48.666;8.948;2024-02-26T05:12:10;1.33;;;0.90;;
20379;SDS011;10349;48.666;8.948;2024-02-26T05:14:35;1.27;;;1.07;;
20379;SDS011;10349;48.666;8.948;2024-02-26T05:17:01;1.33;;;0.80;;
20379;SDS011;10349;48.666;8.948;2024-02-26T05:19:27;3.93;;;1.00;;
20379;SDS011;10349;48.666;8.948;2024-02-26T05:21:52;1.23;;;1.13;;
20379;SDS011;10349;48.666;8.948;2024-02-26T05:24:18;2.90;;;1.57;;
20379;SDS011;10349;48.666;8.948;2024-02-26T05:26:47;3.40;;;1.57;;
20379;SDS011;10349;48.666;8.948;2024-02-26T05:29:13;1.20;;;1.10;;
20379;SDS011;10349;48.666;8.948;2024-02-26T05:31:39;1.00;;;0.90;;
20379;SDS011;10349;48.666;8.948;2024-02-26T05:34:04;1.00;;;0.90;;
20379;SDS011;10349;48.666;8.948;2024-02-26T05:36:30;1.40;;;1.30;;
20379;SDS011;10349;48.666;8.948;2024-02-26T05:38:58;1.47;;;1.37;;
20379;SDS011;10349;48.666;8.948;2024-02-26T05:41:26;1.50;;;1.40;;
20379;SDS011;10349;48.666;8.948;2024-02-26T05:43:52;2.70;;;1.40;;
20379;SDS011;10349;48.666;8.948;2024-02-26T05:46:22;2.30;;;1.77;;
20379;SDS011;10349;48.666;8.948;2024-02-26T05:48:48;1.60;;;1.50;;
20379;SDS011;10349;48.666;8.948;2024-02-26T05:51:15;3.00;;;1.60;;
20379;SDS011;10349;48.666;8.948;2024-02-26T05:53:41;3.60;;;1.83;;
20379;SDS011;10349;48.666;8.948;2024-02-26T05:56:07;2.53;;;2.33;;
20379;SDS011;10349;48.666;8.948;2024-02-26T05:58:32;1.57;;;1.30;;
20379;SDS011;10349;48.666;8.948;2024-02-26T06:00:58;1.50;;;1.40;;
20379;SDS011;10349;48.666;8.948;2024-02-26T06:03:25;3.53;;;1.67;;
20379;SDS011;10349;48.666;8.948;2024-02-26T06:05:51;4.50;;;2.03;;
20379;SDS011;10349;48.666;8.948;2024-02-26T06:08:16;2.77;;;1.70;;
20379;SDS011;10349;48.666;8.948;2024-02-26T06:10:42;1.63;;;1.53;;
20379;SDS011;10349;48.666;8.948;2024-02-26T06:13:08;2.07;;;1.93;;
20379;SDS011;10349;48.666;8.948;2024-02-26T06:15:33;1.37;;;1.27;;
20379;SDS011;10349;48.666;8.948;2024-02-26T06:17:59;3.00;;;1.90;;
20379;SDS011;10349;48.666;8.948;2024-02-26T06:20:25;2.60;;;2.40;;
20379;SDS011;10349;48.666;8.948;2024-02-26T06:22:50;1.87;;;1.30;;
20379;SDS011;10349;48.666;8.948;2024-02-26T06:25:16;1.63;;;1.53;;
20379;SDS011;10349;48.666;8.948;2024-02-26T06:27:42;3.80;;;2.13;;
20379;SDS011;10349;48.666;8.948;2024-02-26T06:30:07;1.50;;;1.40;;
20379;SDS011;10349;48.666;8.948;2024-02-26T06:32:36;2.37;;;1.83;;
20379;SDS011;10349;48.666;8.948;2024-02-26T06:35:04;1.93;;;1.77;;
20379;SDS011;10349;48.666;8.948;2024-02-26T06:37:33;2.00;;;1.70;;
20379;SDS011;10349;48.666;8.948;2024-02-26T06:39:59;1.60;;;1.30;;
20379;SDS011;10349;48.666;8.948;2024-02-26T06:42:29;4.80;;;2.50;;
20379;SDS011;10349;48.666;8.948;2024-02-26T06:44:55;2.30;;;1.80;;
20379;SDS011;10349;48.666;8.948;2024-02-26T06:47:22;1.97;;;1.77;;
20379;SDS011;10349;48.666;8.948;2024-02-26T06:49:47;2.00;;;1.90;;
20379;SDS011;10349;48.666;8.948;2024-02-26T06:52:13;2.87;;;2.03;;
20379;SDS011;10349;48.666;8.948;2024-02-26T06:54:39;3.03;;;2.03;;
20379;SDS011;10349;48.666;8.948;2024-02-26T06:57:04;6.07;;;2.20;;
20379;SDS011;10349;48.666;8.948;2024-02-26T06:59:30;3.47;;;3.13;;
20379;SDS011;10349;48.666;8.948;2024-02-26T07:01:56;1.90;;;1.80;;
20379;SDS011;10349;48.666;8.948;2024-02-26T07:04:21;2.00;;;1.80;;
20379;SDS011;10349;48.666;8.948;2024-02-26T07:06:48;3.47;;;1.60;;
20379;SDS011;10349;48.666;8.948;2024-02-26T07:09:13;3.70;;;1.87;;
20379;SDS011;10349;48.666;8.948;2024-02-26T07:11:41;2.23;;;1.97;;
20379;SDS011;10349;48.666;8.948;2024-02-26T07:14:11;3.00;;;2.33;;
20379;SDS011;10349;48.666;8.948;2024-02-26T07:16:37;2.30;;;2.10;;
20379;SDS011;10349;48.666;8.948;2024-02-26T07:19:03;2.23;;;1.63;;
20379;SDS011;10349;48.666;8.948;2024-02-26T07:21:29;2.90;;;2.27;;
20379;SDS011;10349;48.666;8.948;2024-02-26T07:23:54;2.95;;;1.90;;
20379;SDS011;10349;48.666;8.948;2024-02-26T07:26:20;2.50;;;2.10;;
20379;SDS011;10349;48.666;8.948;2024-02-26T07:28:46;3.03;;;2.50;;
20379;SDS011;10349;48.666;8.948;2024-02-26T07:31:11;9.60;;;2.13;;
20379;SDS011;10349;48.666;8.948;2024-02-26T07:33:37;3.20;;;3.00;;
20379;SDS011;10349;48.666;8.948;2024-02-26T07:36:03;5.33;;;2.30;;
20379;SDS011;10349;48.666;8.948;2024-02-26T07:38:29;2.20;;;1.83;;
20379;SDS011;10349;48.666;8.948;2024-02-26T07:40:54;2.40;;;2.20;;
20379;SDS011;10349;48.666;8.948;2024-02-26T07:43:22;2.13;;;1.97;;
20379;SDS011;10349;48.666;8.948;2024-02-26T07:45:47;4.20;;;3.43;;
20379;SDS011;10349;48.666;8.948;2024-02-26T07:48:13;3.40;;;3.10;;
20379;SDS011;10349;48.666;8.948;2024-02-26T07:50:39;4.67;;;2.30;;
20379;SDS011;10349;48.666;8.948;2024-02-26T07:53:05;2.40;;;2.20;;
20379;SDS011;10349;48.666;8.948;2024-02-26T07:55:31;1.80;;;1.70;;
20379;SDS011;10349;48.666;8.948;2024-02-26T07:57:57;4.60;;;3.07;;
20379;SDS011;10349;48.666;8.948;2024-02-26T08:00:22;2.30;;;2.03;;
20379;SDS011;10349;48.666;8.948;2024-02-26T08:02:48;1.37;;;1.27;;
20379;SDS011;10349;48.666;8.948;2024-02-26T08:05:14;2.20;;;1.53;;
20379;SDS011;10349;48.666;8.948;2024-02-26T08:07:39;1.40;;;1.30;;
20379;SDS011;10349;48.666;8.948;2024-02-26T08:10:05;1.57;;;1.00;;
20379;SDS011;10349;48.666;8.948;2024-02-26T08:12:31;1.20;;;1.10;;
20379;SDS011;10349;48.666;8.948;2024-02-26T08:14:57;2.03;;;1.30;;
20379;SDS011;10349;48.666;8.948;2024-02-26T08:17:23;1.83;;;1.57;;
20379;SDS011;10349;48.666;8.948;2024-02-26T08:19:49;2.07;;;1.87;;
20379;SDS011;10349;48.666;8.948;2024-02-26T08:22:14;1.93;;;1.33;;
20379;SDS011;10349;48.666;8.948;2024-02-26T08:24:43;1.50;;;1.23;;
20379;SDS011;10349;48.666;8.948;2024-02-26T08:27:09;1.57;;;1.47;;
20379;SDS011;10349;48.666;8.948;2024-02-26T08:29:35;1.27;;;1.17;;
20379;SDS011;10349;48.666;8.948;2024-02-26T08:32:00;1.80;;;1.30;;
20379;SDS011;10349;48.666;8.948;2024-02-26T08:34:26;1.10;;;1.00;;
20379;SDS011;10349;48.666;8.948;2024-02-26T08:36:52;1.40;;;1.00;;
20379;SDS011;10349;48.666;8.948;2024-02-26T08:39:18;2.30;;;1.20;;
20379;SDS011;10349;48.666;8.948;2024-02-26T08:41:43;1.53;;;1.33;;
20379;SDS011;10349;48.666;8.948;2024-02-26T08:44:10;1.10;;;0.70;;
20379;SDS011;10349;48.666;8.948;2024-02-26T08:46:36;1.03;;;0.87;;
20379;SDS011;10349;48.666;8.948;2024-02-26T08:49:01;0.87;;;0.77;;
20379;SDS011;10349;48.666;8.948;2024-02-26T08:51:27;1.20;;;1.00;;
20379;SDS011;10349;48.666;8.948;2024-02-26T08:53:53;2.27;;;1.47;;
20379;SDS011;10349;48.666;8.948;2024-02-26T08:56:19;0.97;;;0.87;;
20379;SDS011;10349;48.666;8.948;2024-02-26T08:58:46;1.30;;;1.20;;
20379;SDS011;10349;48.666;8.948;2024-02-26T09:01:14;1.20;;;1.10;;
20379;SDS011;10349;48.666;8.948;2024-02-26T09:03:40;0.97;;;0.87;;
20379;SDS011;10349;48.666;8.948;2024-02-26T09:06:05;1.40;;;1.10;;
20379;SDS011;10349;48.666;8.948;2024-02-26T09:08:32;1.73;;;1.63;;
20379;SDS011;10349;48.666;8.948;2024-02-26T09:10:58;1.30;;;1.20;;
20379;SDS011;10349;48.666;8.948;2024-02-26T09:13:24;2.50;;;2.00;;
20379;SDS011;10349;48.666;8.948;2024-02-26T09:15:49;1.47;;;1.37;;
20379;SDS011;10349;48.666;8.948;2024-02-26T09:18:15;1.13;;;1.03;;
20379;SDS011;10349;48.666;8.948;2024-02-26T09:20:41;0.97;;;0.83;;
20379;SDS011;10349;48.666;8.948;2024-02-26T09:23:06;1.83;;;1.00;;
20379;SDS011;10349;48.666;8.948;2024-02-26T09:25:32;1.67;;;1.50;;
20379;SDS011;10349;48.666;8.948;2024-02-26T09:28:01;1.33;;;1.23;;
20379;SDS011;10349;48.666;8.948;2024-02-26T09:30:26;1.33;;;1.23;;
20379;SDS011;10349;48.666;8.948;2024-02-26T09:32:52;3.37;;;1.43;;
20379;SDS011;10349;48.666;8.948;2024-02-26T09:35:17;2.07;;;1.13;;
20379;SDS011;10349;48.666;8.948;2024-02-26T09:37:43;2.77;;;1.37;;
20379;SDS011;10349;48.666;8.948;2024-02-26T09:40:09;1.73;;;1.20;;
20379;SDS011;10349;48.666;8.948;2024-02-26T09:42:43;1.40;;;0.93;;
20379;SDS011;10349;48.666;8.948;2024-02-26T09:45:10;1.00;;;0.80;;
20379;SDS011;10349;48.666;8.948;2024-02-26T09:47:42;1.07;;;0.90;;
20379;SDS011;10349;48.666;8.948;2024-02-26T09:50:09;1.27;;;1.13;;
20379;SDS011;10349;48.666;8.948;2024-02-26T09:52:38;1.37;;;1.23;;
20379;SDS011;10349;48.666;8.948;2024-02-26T09:55:07;1.17;;;1.07;;
20379;SDS011;10349;48.666;8.948;2024-02-26T09:57:35;1.10;;;1.00;;
20379;SDS011;10349;48.666;8.948;2024-02-26T10:00:02;1.10;;;0.90;;
20379;SDS011;10349;48.666;8.948;2024-02-26T10:02:32;1.10;;;0.97;;
20379;SDS011;10349;48.666;8.948;2024-02-26T10:04:59;2.57;;;1.40;;
20379;SDS011;10349;48.666;8.948;2024-02-26T10:07:30;0.93;;;0.73;;
20379;SDS011;10349;48.666;8.948;2024-02-26T10:09:56;1.10;;;0.90;;
20379;SDS011;10349;48.666;8.948;2024-02-26T10:12:21;1.17;;;0.63;;
20379;SDS011;10349;48.666;8.948;2024-02-26T10:14:48;1.50;;;1.40;;
20379;SDS011;10349;48.666;8.948;2024-02-26T10:17:13;1.00;;;0.77;;
20379;SDS011;10349;48.666;8.948;2024-02-26T10:19:40;3.93;;;1.20;;
20379;SDS011;10349;48.666;8.948;2024-02-26T10:22:05;1.10;;;0.97;;
20379;SDS011;10349;48.666;8.948;2024-02-26T10:24:31;0.90;;;0.80;;
20379;SDS011;10349;48.666;8.948;2024-02-26T10:26:57;0.80;;;0.60;;
20379;SDS011;10349;48.666;8.948;2024-02-26T10:29:23;2.33;;;1.37;;
20379;SDS011;10349;48.666;8.948;2024-02-26T10:31:50;0.90;;;0.70;;
20379;SDS011;10349;48.666;8.948;2024-02-26T10:34:16;1.33;;;0.93;;
20379;SDS011;10349;48.666;8.948;2024-02-26T10:36:42;1.00;;;0.90;;
20379;SDS011;10349;48.666;8.948;2024-02-26T10:39:09;1.13;;;0.90;;
20379;SDS011;10349;48.666;8.948;2024-02-26T10:41:37;1.30;;;1.07;;
20379;SDS011;10349;48.666;8.948;2024-02-26T10:44:03;1.47;;;1.00;;
20379;SDS011;10349;48.666;8.948;2024-02-26T10:46:29;0.93;;;0.70;;
20379;SDS011;10349;48.666;8.948;2024-02-26T10:48:55;1.40;;;1.00;;
20379;SDS011;10349;48.666;8.948;2024-02-26T10:51:28;1.10;;;1.00;;
20379;SDS011;10349;48.666;8.948;2024-02-26T10:53:55;1.57;;;0.90;;
20379;SDS011;10349;48.666;8.948;2024-02-26T10:56:27;1.10;;;0.70;;
20379;SDS011;10349;48.666;8.948;2024-02-26T10:58:57;1.10;;;0.93;;
20379;SDS011;10349;48.666;8.948;2024-02-26T11:01:24;1.10;;;0.97;;
20379;SDS011;10349;48.666;8.948;2024-02-26T11:03:52;1.00;;;0.70;;
20379;SDS011;10349;48.666;8.948;2024-02-26T11:06:19;1.97;;;0.87;;
20379;SDS011;10349;48.666;8.948;2024-02-26T11:08:52;0.90;;;0.80;;
20379;SDS011;10349;48.666;8.948;2024-02-26T11:11:19;2.67;;;1.00;;
20379;SDS011;10349;48.666;8.948;2024-02-26T11:13:46;4.83;;;1.10;;
20379;SDS011;10349;48.666;8.948;2024-02-26T11:16:17;1.00;;;0.80;;
20379;SDS011;10349;48.666;8.948;2024-02-26T11:18:45;1.30;;;1.20;;
20379;SDS011;10349;48.666;8.948;2024-02-26T11:21:13;1.30;;;0.90;;
20379;SDS011;10349;48.666;8.948;2024-02-26T11:23:41;1.13;;;1.03;;
20379;SDS011;10349;48.666;8.948;2024-02-26T11:26:07;0.97;;;0.87;;
20379;SDS011;10349;48.666;8.948;2024-02-26T11:28:35;0.90;;;0.80;;
20379;SDS011;10349;48.666;8.948;2024-02-26T11:31:02;1.17;;;1.07;;
20379;SDS011;10349;48.666;8.948;2024-02-26T11:33:29;2.10;;;1.10;;
20379;SDS011;10349;48.666;8.948;2024-02-26T11:35:55;1.20;;;1.03;;
20379;SDS011;10349;48.666;8.948;2024-02-26T11:38:22;2.20;;;1.60;;
20379;SDS011;10349;48.666;8.948;2024-02-26T11:40:51;1.20;;;1.10;;
20379;SDS011;10349;48.666;8.948;2024-02-26T11:43:18;1.30;;;0.80;;
20379;SDS011;10349;48.666;8.948;2024-02-26T11:45:49;3.37;;;0.97;;
20379;SDS011;10349;48.666;8.948;2024-02-26T11:48:20;1.63;;;1.10;;
20379;SDS011;10349;48.666;8.948;2024-02-26T11:50:53;1.57;;;1.00;;
20379;SDS011;10349;48.666;8.948;2024-02-26T11:53:24;1.33;;;1.23;;
20379;SDS011;10349;48.666;8.948;2024-02-26T11:56:12;1.37;;;1.27;;
20379;SDS011;10349;48.666;8.948;2024-02-26T11:58:48;1.73;;;0.80;;
20379;SDS011;10349;48.666;8.948;2024-02-26T12:06:57;1.13;;;0.93;;
20379;SDS011;10349;48.666;8.948;2024-02-26T12:11:57;1.13;;;0.90;;
20379;SDS011;10349;48.666;8.948;2024-02-26T12:14:26;1.20;;;1.10;;
20379;SDS011;10349;48.666;8.948;2024-02-26T12:16:52;1.43;;;1.30;;
20379;SDS011;10349;48.666;8.948;2024-02-26T12:19:18;1.17;;;0.90;;
20379;SDS011;10349;48.666;8.948;2024-02-26T12:21:43;1.93;;;1.20;;
20379;SDS011;10349;48.666;8.948;2024-02-26T12:24:10;2.90;;;1.50;;
20379;SDS011;10349;48.666;8.948;2024-02-26T12:26:37;1.20;;;1.10;;
20379;SDS011;10349;48.666;8.948;2024-02-26T12:29:04;1.40;;;1.30;;
20379;SDS011;10349;48.666;8.948;2024-02-26T12:31:30;1.30;;;1.20;;
20379;SDS011;10349;48.666;8.948;2024-02-26T12:33:57;3.73;;;1.30;;
20379;SDS011;10349;48.666;8.948;2024-02-26T12:36:23;1.07;;;0.97;;
20379;SDS011;10349;48.666;8.948;2024-02-26T12:38:52;0.90;;;0.77;;
20379;SDS011;10349;48.666;8.948;2024-02-26T12:41:17;0.90;;;0.63;;
20379;SDS011;10349;48.666;8.948;2024-02-26T12:43:43;0.90;;;0.70;;
20379;SDS011;10349;48.666;8.948;2024-02-26T12:46:09;1.10;;;0.90;;
20379;SDS011;10349;48.666;8.948;2024-02-26T12:48:36;0.90;;;0.73;;
20379;SDS011;10349;48.666;8.948;2024-02-26T12:51:02;1.00;;;0.80;;
20379;SDS011;10349;48.666;8.948;2024-02-26T12:53:27;1.10;;;0.90;;
20379;SDS011;10349;48.666;8.948;2024-02-26T12:55:54;1.57;;;0.83;;
20379;SDS011;10349;48.666;8.948;2024-02-26T12:58:21;1.03;;;0.70;;
20379;SDS011;10349;48.666;8.948;2024-02-26T13:00:50;0.90;;;0.60;;
20379;SDS011;10349;48.666;8.948;2024-02-26T13:03:17;0.80;;;0.70;;
20379;SDS011;10349;48.666;8.948;2024-02-26T13:05:43;0.90;;;0.60;;
20379;SDS011;10349;48.666;8.948;2024-02-26T13:08:09;1.00;;;0.80;;
20379;SDS011;10349;48.666;8.948;2024-02-26T13:10:42;0.90;;;0.60;;
20379;SDS011;10349;48.666;8.948;2024-02-26T13:13:07;0.90;;;0.50;;
20379;SDS011;10349;48.666;8.948;2024-02-26T13:15:33;0.80;;;0.53;;
20379;SDS011;10349;48.666;8.948;2024-02-26T13:17:59;1.00;;;0.60;;
20379;SDS011;10349;48.666;8.948;2024-02-26T13:20:37;1.30;;;0.90;;
20379;SDS011;10349;48.666;8.948;2024-02-26T13:23:11;0.80;;;0.60;;
20379;SDS011;10349;48.666;8.948;2024-02-26T13:25:37;0.90;;;0.70;;
20379;SDS011;10349;48.666;8.948;2024-02-26T13:28:09;0.80;;;0.50;;
20379;SDS011;10349;48.666;8.948;2024-02-26T13:30:49;1.00;;;0.60;;
20379;SDS011;10349;48.666;8.948;2024-02-26T13:33:22;0.87;;;0.50;;
20379;SDS011;10349;48.666;8.948;2024-02-26T13:35:48;0.80;;;0.60;;
20379;SDS011;10349;48.666;8.948;2024-02-26T13:38:14;0.90;;;0.60;;
20379;SDS011;10349;48.666;8.948;2024-02-26T13:40:40;1.00;;;0.60;;
20379;SDS011;10349;48.666;8.948;2024-02-26T13:43:06;0.90;;;0.60;;
20379;SDS011;10349;48.666;8.948;2024-02-26T13:45:33;0.80;;;0.60;;
20379;SDS011;10349;48.666;8.948;2024-02-26T13:48:06;0.80;;;0.60;;
20379;SDS011;10349;48.666;8.948;2024-02-26T13:50:35;0.80;;;0.60;;
20379;SDS011;10349;48.666;8.948;2024-02-26T13:53:01;1.00;;;0.80;;
20379;SDS011;10349;48.666;8.948;2024-02-26T13:55:27;0.80;;;0.50;;
20379;SDS011;10349;48.666;8.948;2024-02-26T13:57:55;0.80;;;0.60;;
20379;SDS011;10349;48.666;8.948;2024-02-26T14:00:22;0.90;;;0.70;;
20379;SDS011;10349;48.666;8.948;2024-02-26T14:02:48;0.93;;;0.60;;
20379;SDS011;10349;48.666;8.948;2024-02-26T14:05:13;0.90;;;0.63;;
20379;SDS011;10349;48.666;8.948;2024-02-26T14:07:39;0.90;;;0.77;;
20379;SDS011;10349;48.666;8.948;2024-02-26T14:10:06;2.30;;;0.70;;
20379;SDS011;10349;48.666;8.948;2024-02-26T14:12:32;0.90;;;0.60;;
20379;SDS011;10349;48.666;8.948;2024-02-26T14:14:57;0.90;;;0.80;;
20379;SDS011;10349;48.666;8.948;2024-02-26T14:17:25;1.10;;;0.90;;
20379;SDS011;10349;48.666;8.948;2024-02-26T14:19:51;1.73;;;0.83;;
20379;SDS011;10349;48.666;8.948;2024-02-26T14:22:17;0.80;;;0.60;;
20379;SDS011;10349;48.666;8.948;2024-02-26T14:24:43;0.80;;;0.70;;
20379;SDS011;10349;48.666;8.948;2024-02-26T14:27:10;1.00;;;0.70;;
20379;SDS011;10349;48.666;8.948;2024-02-26T14:29:41;0.87;;;0.57;;
20379;SDS011;10349;48.666;8.948;2024-02-26T14:32:08;0.90;;;0.70;;
20379;SDS011;10349;48.666;8.948;2024-02-26T14:34:34;1.27;;;0.60;;
20379;SDS011;10349;48.666;8.948;2024-02-26T14:37:00;0.90;;;0.50;;
20379;SDS011;10349;48.666;8.948;2024-02-26T14:39:26;0.93;;;0.60;;
20379;SDS011;10349;48.666;8.948;2024-02-26T14:41:51;0.90;;;0.70;;
20379;SDS011;10349;48.666;8.948;2024-02-26T14:44:17;1.00;;;0.77;;
20379;SDS011;10349;48.666;8.948;2024-02-26T14:46:43;1.00;;;0.60;;
20379;SDS011;10349;48.666;8.948;2024-02-26T14:49:08;1.00;;;0.60;;
20379;SDS011;10349;48.666;8.948;2024-02-26T14:51:34;0.80;;;0.60;;